createdAt,value
2022-07-30T00:00:25.141Z,3.30
2022-07-30T00:03:12.339Z,2.20
2022-07-30T00:05:59.318Z,2.97
2022-07-30T00:08:46.033Z,2.45
2022-07-30T00:11:34.255Z,2.85
2022-07-30T00:14:21.096Z,2.80
2022-07-30T00:17:07.822Z,2.53
2022-07-30T00:19:54.772Z,2.92
2022-07-30T00:22:43.188Z,2.55
2022-07-30T00:25:30.228Z,2.58
2022-07-30T00:28:18.644Z,2.60
2022-07-30T00:31:05.520Z,3.25
2022-07-30T00:33:52.529Z,2.70
2022-07-30T00:36:39.136Z,2.60
2022-07-30T00:39:28.042Z,2.58
2022-07-30T00:42:15.052Z,3.05
2022-07-30T00:45:03.124Z,3.00
2022-07-30T00:47:49.847Z,3.07
2022-07-30T00:50:36.588Z,2.60
2022-07-30T00:53:23.115Z,3.60
2022-07-30T00:56:09.826Z,2.63
2022-07-30T00:58:56.431Z,1.90
2022-07-30T01:01:44.548Z,2.77
2022-07-30T01:04:31.877Z,3.25
2022-07-30T01:07:18.660Z,2.38
2022-07-30T01:10:06.365Z,2.95
2022-07-30T01:12:54.483Z,3.30
2022-07-30T01:15:41.297Z,3.05
2022-07-30T01:18:50.697Z,2.92
2022-07-30T01:21:38.828Z,2.95
2022-07-30T01:24:29.021Z,3.20
2022-07-30T01:27:19.885Z,3.15
2022-07-30T01:30:08.524Z,2.60
2022-07-30T01:32:56.684Z,3.35
2022-07-30T01:35:44.342Z,3.47
2022-07-30T01:38:34.936Z,3.50
2022-07-30T01:41:22.799Z,3.70
2022-07-30T01:44:12.511Z,3.45
2022-07-30T01:46:59.935Z,3.40
2022-07-30T01:49:48.294Z,2.65
2022-07-30T01:52:36.341Z,2.80
2022-07-30T01:55:26.342Z,2.63
2022-07-30T01:58:14.063Z,2.80
2022-07-30T02:01:07.165Z,2.83
2022-07-30T02:03:54.736Z,3.25
2022-07-30T02:06:43.917Z,2.83
2022-07-30T02:09:37.562Z,2.35
2022-07-30T02:12:31.610Z,2.00
2022-07-30T02:15:25.986Z,2.28
2022-07-30T02:18:16.744Z,2.03
2022-07-30T02:21:07.490Z,2.72
2022-07-30T02:23:57.302Z,2.13
2022-07-30T02:26:46.265Z,2.10
2022-07-30T02:29:35.045Z,2.00
2022-07-30T02:32:23.619Z,2.20
2022-07-30T02:35:18.934Z,2.00
2022-07-30T02:38:06.187Z,2.20
2022-07-30T02:40:54.560Z,2.00
2022-07-30T02:43:42.039Z,2.40
2022-07-30T02:46:31.250Z,2.10
2022-07-30T02:49:38.067Z,2.92
2022-07-30T02:52:27.878Z,1.80
2022-07-30T02:55:17.588Z,2.17
2022-07-30T02:58:05.671Z,1.70
2022-07-30T03:00:55.420Z,2.63
2022-07-30T03:03:42.835Z,2.25
2022-07-30T03:06:29.897Z,2.03
2022-07-30T03:09:19.074Z,2.33
2022-07-30T03:12:06.209Z,2.10
2022-07-30T03:14:56.100Z,2.03
2022-07-30T03:17:45.021Z,2.00
2022-07-30T03:20:33.387Z,2.03
2022-07-30T03:23:21.454Z,2.22
2022-07-30T03:26:10.599Z,2.85
2022-07-30T03:28:58.069Z,2.50
2022-07-30T03:31:45.225Z,2.53
2022-07-30T03:34:33.563Z,2.17
2022-07-30T03:37:22.659Z,3.17
2022-07-30T03:40:10.060Z,3.28
2022-07-30T03:42:58.537Z,2.75
2022-07-30T03:45:47.267Z,3.28
2022-07-30T03:48:36.947Z,3.05
2022-07-30T03:51:24.030Z,2.53
2022-07-30T03:54:13.958Z,2.42
2022-07-30T03:57:01.632Z,2.53
2022-07-30T04:00:04.596Z,3.38
2022-07-30T04:02:59.931Z,2.53
2022-07-30T04:06:05.939Z,2.47
2022-07-30T04:08:53.062Z,2.30
2022-07-30T04:11:40.759Z,2.67
2022-07-30T04:14:40.134Z,2.60
2022-07-30T04:17:30.933Z,2.73
2022-07-30T04:20:20.392Z,2.50
2022-07-30T04:23:07.458Z,1.90
2022-07-30T04:25:54.456Z,2.35
2022-07-30T04:28:42.068Z,2.60
2022-07-30T04:31:29.458Z,2.30
2022-07-30T04:34:23.590Z,2.57
2022-07-30T04:37:10.489Z,2.30
2022-07-30T04:39:58.585Z,2.20
2022-07-30T04:42:45.587Z,2.92
2022-07-30T04:45:33.151Z,2.17
2022-07-30T04:48:22.045Z,1.80
2022-07-30T04:51:35.854Z,2.20
2022-07-30T04:54:24.258Z,2.03
2022-07-30T04:57:15.334Z,2.25
2022-07-30T05:00:02.746Z,2.35
2022-07-30T05:02:51.238Z,2.03
2022-07-30T05:05:38.271Z,3.25
2022-07-30T05:08:26.786Z,2.92
2022-07-30T05:11:14.291Z,2.45
2022-07-30T05:14:01.301Z,2.53
2022-07-30T05:16:48.799Z,2.28
2022-07-30T05:19:35.465Z,1.95
2022-07-30T05:22:21.981Z,2.70
2022-07-30T05:25:16.289Z,2.65
2022-07-30T05:28:04.993Z,2.58
2022-07-30T05:30:52.664Z,2.27
2022-07-30T05:33:42.645Z,2.83
2022-07-30T05:36:36.129Z,2.70
2022-07-30T05:39:22.793Z,2.33
2022-07-30T05:42:13.948Z,2.40
2022-07-30T05:45:05.810Z,2.40
2022-07-30T05:47:52.625Z,1.95
2022-07-30T05:50:39.505Z,2.20
2022-07-30T05:53:26.327Z,2.42
2022-07-30T05:56:33.488Z,2.20
2022-07-30T05:59:32.113Z,2.88
2022-07-30T06:02:37.427Z,2.08
2022-07-30T06:05:42.535Z,1.65
2022-07-30T06:08:29.345Z,2.22
2022-07-30T06:11:16.536Z,2.63
2022-07-30T06:14:04.147Z,2.00
2022-07-30T06:16:52.796Z,2.42
2022-07-30T06:19:41.080Z,2.47
2022-07-30T06:22:28.010Z,2.20
2022-07-30T06:25:18.736Z,2.10
2022-07-30T06:28:21.311Z,2.13
2022-07-30T06:31:12.993Z,1.98
2022-07-30T06:34:01.430Z,2.03
2022-07-30T06:36:53.744Z,2.17
2022-07-30T06:39:56.114Z,1.80
2022-07-30T06:43:21.130Z,1.98
2022-07-30T06:46:31.050Z,2.53
2022-07-30T06:49:19.705Z,2.67
2022-07-30T06:52:07.894Z,2.43
2022-07-30T06:54:55.107Z,2.22
2022-07-30T06:57:49.346Z,3.05
2022-07-30T07:00:59.308Z,2.13
2022-07-30T07:03:50.220Z,1.53
2022-07-30T07:06:39.707Z,2.08
2022-07-30T07:09:27.730Z,3.50
2022-07-30T07:12:34.360Z,1.65
2022-07-30T07:15:22.403Z,2.58
2022-07-30T07:18:23.765Z,1.85
2022-07-30T07:21:14.882Z,2.17
2022-07-30T07:24:03.125Z,1.77
2022-07-30T07:27:15.284Z,2.00
2022-07-30T07:30:05.646Z,2.00
2022-07-30T07:32:55.156Z,2.67
2022-07-30T07:35:49.629Z,1.43
2022-07-30T07:38:44.142Z,1.42
2022-07-30T07:41:48.206Z,3.80
2022-07-30T07:44:36.918Z,1.40
2022-07-30T07:47:24.194Z,1.55
2022-07-30T07:50:31.454Z,1.30
2022-07-30T07:53:18.521Z,2.20
2022-07-30T07:56:08.368Z,1.83
2022-07-30T07:58:56.733Z,1.73
2022-07-30T08:01:46.503Z,1.02
2022-07-30T08:04:37.530Z,1.58
2022-07-30T08:07:31.400Z,1.38
2022-07-30T08:10:37.017Z,1.15
2022-07-30T08:13:49.228Z,1.25
2022-07-30T08:16:53.533Z,1.55
2022-07-30T08:19:52.605Z,1.15
2022-07-30T08:22:42.272Z,1.20
2022-07-30T08:25:29.266Z,1.52
2022-07-30T08:28:34.177Z,1.67
2022-07-30T08:31:23.551Z,1.60
2022-07-30T08:34:13.200Z,1.10
2022-07-30T08:36:59.876Z,1.50
2022-07-30T08:39:47.192Z,1.70
2022-07-30T08:42:35.824Z,1.90
2022-07-30T08:45:34.619Z,1.38
2022-07-30T08:48:32.562Z,1.48
2022-07-30T08:51:21.603Z,1.48
2022-07-30T08:54:11.186Z,1.65
2022-07-30T08:56:59.992Z,1.02
2022-07-30T08:59:59.935Z,1.42
2022-07-30T09:02:48.828Z,0.98
2022-07-30T09:05:36.426Z,1.33
2022-07-30T09:08:24.699Z,1.08
2022-07-30T09:11:11.814Z,1.10
2022-07-30T09:14:09.102Z,1.50
2022-07-30T09:16:58.493Z,1.13
2022-07-30T09:20:03.463Z,0.93
2022-07-30T09:22:54.221Z,1.50
2022-07-30T09:26:05.902Z,1.20
2022-07-30T09:29:17.185Z,2.42
2022-07-30T09:32:22.949Z,1.20
2022-07-30T09:35:28.541Z,1.52
2022-07-30T09:38:48.735Z,1.20
2022-07-30T09:41:56.755Z,1.30
2022-07-30T09:44:44.096Z,1.30
2022-07-30T09:47:32.604Z,1.23
2022-07-30T09:50:30.104Z,0.88
2022-07-30T09:53:19.820Z,1.20
2022-07-30T09:56:23.515Z,1.10
2022-07-30T09:59:26.903Z,0.82
2022-07-30T10:02:21.762Z,1.00
2022-07-30T10:05:27.315Z,1.38
2022-07-30T10:08:16.305Z,1.10
2022-07-30T10:11:08.676Z,4.03
2022-07-30T10:13:59.052Z,1.00
2022-07-30T10:16:47.952Z,1.52
2022-07-30T10:19:39.917Z,1.58
2022-07-30T10:22:47.656Z,1.20
2022-07-30T10:26:00.053Z,1.13
2022-07-30T10:29:08.962Z,1.90
2022-07-30T10:32:02.364Z,0.93
2022-07-30T10:34:49.191Z,1.10
2022-07-30T10:37:37.720Z,1.80
2022-07-30T10:40:30.800Z,1.50
2022-07-30T10:43:31.958Z,1.20
2022-07-30T10:46:24.361Z,1.80
2022-07-30T10:49:18.869Z,1.23
2022-07-30T10:52:07.881Z,2.60
2022-07-30T10:54:55.415Z,2.27
2022-07-30T10:57:56.854Z,1.10
2022-07-30T11:00:58.587Z,1.25
2022-07-30T11:03:45.539Z,1.30
2022-07-30T11:06:36.885Z,1.67
2022-07-30T11:09:37.055Z,1.20
2022-07-30T11:12:47.413Z,1.10
2022-07-30T11:15:57.637Z,1.05
2022-07-30T11:19:26.410Z,1.00
2022-07-30T11:22:31.381Z,0.70
2022-07-30T11:25:50.271Z,1.08
2022-07-30T11:28:40.665Z,0.88
2022-07-30T11:31:55.592Z,1.13
2022-07-30T11:34:42.124Z,2.20
2022-07-30T11:37:32.708Z,0.70
2022-07-30T11:40:26.204Z,0.85
2022-07-30T11:43:18.674Z,1.20
2022-07-30T11:46:10.345Z,1.23
2022-07-30T11:48:58.668Z,1.05
2022-07-30T11:51:46.152Z,0.73
2022-07-30T11:54:34.332Z,0.60
2022-07-30T11:57:21.076Z,0.93
2022-07-30T12:00:08.499Z,0.93
2022-07-30T12:03:04.156Z,0.82
2022-07-30T12:05:53.351Z,1.23
2022-07-30T12:08:43.643Z,0.85
2022-07-30T12:11:35.142Z,1.10
2022-07-30T12:14:21.767Z,0.65
2022-07-30T12:17:14.922Z,0.82
2022-07-30T12:20:05.315Z,0.88
2022-07-30T12:22:52.785Z,0.63
2022-07-30T12:25:40.233Z,0.60
2022-07-30T12:28:36.194Z,0.70
2022-07-30T12:31:22.877Z,0.88
2022-07-30T12:34:21.378Z,0.90
2022-07-30T12:37:11.304Z,1.02
2022-07-30T12:40:14.940Z,0.90
2022-07-30T12:43:02.058Z,0.73
2022-07-30T12:45:54.230Z,0.95
2022-07-30T12:48:50.277Z,0.88
2022-07-30T12:51:38.468Z,1.52
2022-07-30T12:54:30.117Z,1.20
2022-07-30T12:57:16.901Z,1.23
2022-07-30T13:00:05.497Z,0.90
2022-07-30T13:02:53.469Z,1.30
2022-07-30T13:05:43.894Z,1.02
2022-07-30T13:08:53.156Z,0.90
2022-07-30T13:11:40.280Z,0.70
2022-07-30T13:14:26.964Z,1.05
2022-07-30T13:17:15.037Z,0.65
2022-07-30T13:20:03.220Z,1.07
2022-07-30T13:22:50.011Z,0.95
2022-07-30T13:25:38.783Z,0.57
2022-07-30T13:28:27.951Z,0.57
2022-07-30T13:31:14.851Z,0.33
2022-07-30T13:34:01.958Z,0.90
2022-07-30T13:36:50.316Z,0.50
2022-07-30T13:39:37.036Z,0.60
2022-07-30T13:42:23.927Z,0.75
2022-07-30T13:45:11.240Z,0.63
2022-07-30T13:47:58.428Z,0.73
2022-07-30T13:50:45.299Z,0.60
2022-07-30T13:53:33.356Z,1.30
2022-07-30T13:56:20.090Z,0.85
2022-07-30T13:59:07.675Z,0.82
2022-07-30T14:01:54.505Z,1.02
2022-07-30T14:04:41.724Z,0.60
2022-07-30T14:07:28.419Z,0.75
2022-07-30T14:10:17.608Z,0.70
2022-07-30T14:13:05.515Z,0.63
2022-07-30T14:15:52.520Z,0.70
2022-07-30T14:18:39.969Z,0.70
2022-07-30T14:21:26.769Z,0.50
2022-07-30T14:24:16.092Z,0.40
2022-07-30T14:27:04.736Z,0.43
2022-07-30T14:29:51.919Z,0.50
2022-07-30T14:32:38.879Z,0.70
2022-07-30T14:35:25.804Z,0.50
2022-07-30T14:38:12.533Z,0.57
2022-07-30T14:40:59.158Z,0.47
2022-07-30T14:43:47.559Z,0.68
2022-07-30T14:46:34.640Z,0.80
2022-07-30T14:49:21.445Z,0.82
2022-07-30T14:52:09.761Z,0.77
2022-07-30T14:54:56.489Z,1.20
2022-07-30T14:57:44.302Z,0.77
2022-07-30T15:00:34.893Z,0.98
2022-07-30T15:03:37.096Z,1.50
2022-07-30T15:06:24.887Z,2.13
2022-07-30T15:09:12.100Z,0.70
2022-07-30T15:12:09.037Z,0.80
2022-07-30T15:14:56.383Z,0.80
2022-07-30T15:17:45.499Z,1.38
2022-07-30T15:20:32.318Z,1.40
2022-07-30T15:23:19.310Z,0.63
2022-07-30T15:26:06.165Z,0.57
2022-07-30T15:28:52.869Z,0.82
2022-07-30T15:31:39.832Z,0.80
2022-07-30T15:34:27.923Z,2.00
2022-07-30T15:37:15.516Z,0.63
2022-07-30T15:40:05.204Z,1.05
2022-07-30T15:42:51.913Z,0.60
2022-07-30T15:45:55.605Z,1.08
2022-07-30T15:48:43.698Z,1.13
2022-07-30T15:51:34.410Z,0.80
2022-07-30T15:54:23.316Z,1.70
2022-07-30T15:57:09.940Z,1.25
2022-07-30T15:59:56.592Z,1.27
2022-07-30T16:02:43.453Z,1.33
2022-07-30T16:05:52.110Z,1.10
2022-07-30T16:08:38.935Z,0.73
2022-07-30T16:11:25.702Z,0.90
2022-07-30T16:14:12.757Z,0.60
2022-07-30T16:16:59.458Z,0.63
2022-07-30T16:19:46.239Z,1.13
2022-07-30T16:22:33.319Z,1.20
2022-07-30T16:25:21.893Z,1.02
2022-07-30T16:28:08.887Z,1.10
2022-07-30T16:30:55.397Z,1.08
2022-07-30T16:33:42.476Z,0.80
2022-07-30T16:36:29.519Z,0.80
2022-07-30T16:39:16.467Z,0.80
2022-07-30T16:42:05.074Z,0.57
2022-07-30T16:44:52.210Z,0.93
2022-07-30T16:47:39.468Z,1.10
2022-07-30T16:50:25.999Z,0.82
2022-07-30T16:53:14.366Z,0.85
2022-07-30T16:56:01.405Z,0.85
2022-07-30T16:58:49.759Z,0.93
2022-07-30T17:01:36.711Z,1.48
2022-07-30T17:04:23.715Z,0.55
2022-07-30T17:07:10.751Z,0.90
2022-07-30T17:09:58.643Z,1.30
2022-07-30T17:12:50.529Z,0.80
2022-07-30T17:15:39.480Z,0.50
2022-07-30T17:18:26.375Z,1.00
2022-07-30T17:21:13.059Z,1.00
2022-07-30T17:23:59.973Z,0.90
2022-07-30T17:26:47.296Z,1.10
2022-07-30T17:29:34.313Z,0.60
2022-07-30T17:32:38.562Z,0.95
2022-07-30T17:35:25.991Z,0.90
2022-07-30T17:38:13.024Z,0.80
2022-07-30T17:41:00.068Z,0.68
2022-07-30T17:43:47.076Z,0.70
2022-07-30T17:46:34.150Z,0.60
2022-07-30T17:49:22.498Z,0.60
2022-07-30T17:52:09.717Z,0.98
2022-07-30T17:54:59.047Z,0.77
2022-07-30T17:57:45.838Z,0.63
2022-07-30T18:00:32.694Z,0.90
2022-07-30T18:03:19.211Z,0.75
2022-07-30T18:06:07.327Z,0.88
2022-07-30T18:08:54.348Z,0.85
2022-07-30T18:11:40.975Z,1.13
2022-07-30T18:14:27.898Z,1.00
2022-07-30T18:17:14.687Z,1.88
2022-07-30T18:20:01.675Z,0.70
2022-07-30T18:22:51.804Z,0.60
2022-07-30T18:25:53.297Z,0.90
2022-07-30T18:28:41.851Z,1.10
2022-07-30T18:31:29.392Z,0.70
2022-07-30T18:34:16.162Z,0.70
2022-07-30T18:37:03.174Z,1.25
2022-07-30T18:39:51.489Z,0.90
2022-07-30T18:42:38.409Z,0.80
2022-07-30T18:45:28.432Z,0.90
2022-07-30T18:48:15.415Z,0.98
2022-07-30T18:51:02.388Z,0.63
2022-07-30T18:53:48.930Z,0.60
2022-07-30T18:56:37.079Z,0.50
2022-07-30T18:59:23.763Z,0.75
2022-07-30T19:02:10.316Z,0.77
2022-07-30T19:04:58.339Z,0.63
2022-07-30T19:07:56.937Z,1.05
2022-07-30T19:10:45.437Z,0.60
2022-07-30T19:13:33.698Z,0.80
2022-07-30T19:16:20.986Z,1.02
2022-07-30T19:19:07.922Z,1.00
2022-07-30T19:21:55.054Z,0.70
2022-07-30T19:24:41.741Z,0.77
2022-07-30T19:27:28.305Z,1.00
2022-07-30T19:30:16.616Z,0.90
2022-07-30T19:33:12.498Z,1.00
2022-07-30T19:36:02.805Z,0.70
2022-07-30T19:38:50.125Z,1.27
2022-07-30T19:41:40.381Z,0.85
2022-07-30T19:44:27.334Z,0.77
2022-07-30T19:47:15.956Z,0.80
2022-07-30T19:50:02.741Z,1.20
2022-07-30T19:52:51.441Z,0.70
2022-07-30T19:55:41.680Z,0.68
2022-07-30T19:58:30.681Z,0.93
2022-07-30T20:01:18.851Z,0.75
2022-07-30T20:04:11.852Z,1.05
2022-07-30T20:07:01.099Z,1.40
2022-07-30T20:09:48.631Z,1.35
2022-07-30T20:12:36.254Z,1.52
2022-07-30T20:15:23.113Z,1.48
2022-07-30T20:18:10.909Z,0.80
2022-07-30T20:20:58.911Z,1.10
2022-07-30T20:23:45.878Z,0.73
2022-07-30T20:26:33.773Z,1.10
2022-07-30T20:29:21.403Z,1.60
2022-07-30T20:32:09.221Z,1.67
2022-07-30T20:34:56.851Z,1.48
2022-07-30T20:40:53.160Z,1.02
2022-07-30T20:46:49.724Z,0.93
2022-07-30T20:49:37.051Z,1.48
2022-07-30T20:52:26.240Z,1.23
2022-07-30T20:55:16.504Z,1.70
2022-07-30T20:58:13.902Z,1.98
2022-07-30T21:01:04.755Z,1.10
2022-07-30T21:03:52.085Z,0.73
2022-07-30T21:06:45.673Z,1.30
2022-07-30T21:09:52.208Z,1.50
2022-07-30T21:12:40.963Z,1.40
2022-07-30T21:15:32.655Z,0.90
2022-07-30T21:18:19.591Z,1.13
2022-07-30T21:21:07.806Z,1.17
2022-07-30T21:23:58.410Z,1.20
2022-07-30T21:26:48.484Z,0.93
2022-07-30T21:29:36.812Z,0.95
2022-07-30T21:32:25.693Z,0.93
2022-07-30T21:35:13.016Z,1.07
2022-07-30T21:38:02.138Z,1.20
2022-07-30T21:40:49.845Z,0.98
2022-07-30T21:43:36.584Z,1.20
2022-07-30T21:46:27.125Z,1.37
2022-07-30T21:49:14.169Z,1.00
2022-07-30T21:52:01.473Z,1.40
2022-07-30T21:54:49.735Z,1.02
2022-07-30T21:57:37.479Z,1.20
2022-07-30T22:00:44.487Z,1.02
2022-07-30T22:06:40.300Z,0.90
2022-07-30T22:09:34.295Z,1.30
2022-07-30T22:12:21.387Z,1.48
2022-07-30T22:15:12.852Z,0.90
2022-07-30T22:18:02.143Z,1.00
2022-07-30T22:20:50.807Z,1.00
2022-07-30T22:23:37.628Z,1.23
2022-07-30T22:26:24.548Z,1.40
2022-07-30T22:29:13.573Z,0.93
2022-07-30T22:32:00.561Z,1.08
2022-07-30T22:34:47.608Z,1.08
2022-07-30T22:37:35.624Z,1.30
2022-07-30T22:40:24.676Z,0.75
2022-07-30T22:43:12.637Z,1.13
2022-07-30T22:46:00.058Z,0.90
2022-07-30T22:48:47.222Z,0.80
2022-07-30T22:51:58.824Z,0.90
2022-07-30T22:54:43.895Z,0.93
2022-07-30T23:00:38.955Z,1.40
2022-07-30T23:03:25.907Z,1.20
2022-07-30T23:06:14.440Z,1.83
2022-07-30T23:09:01.746Z,1.92
2022-07-30T23:11:49.926Z,1.20
2022-07-30T23:12:18.317Z,1.17
2022-07-30T23:12:18.422Z,1.55
2022-07-30T23:12:30.811Z,0.70
2022-07-30T23:12:33.009Z,1.25
2022-07-30T23:14:36.875Z,0.95
2022-07-30T23:17:23.752Z,0.93
2022-07-30T23:20:11.807Z,1.50
2022-07-30T23:23:01.382Z,1.45
2022-07-30T23:25:48.619Z,1.17
2022-07-30T23:28:36.749Z,1.00
2022-07-30T23:31:26.770Z,1.40
2022-07-30T23:34:14.084Z,1.38
2022-07-30T23:37:04.789Z,1.35
2022-07-30T23:39:51.695Z,1.35
2022-07-30T23:42:38.820Z,1.47
2022-07-30T23:45:27.222Z,1.00
2022-07-30T23:48:15.046Z,1.20
2022-07-30T23:51:02.011Z,1.80
2022-07-30T23:53:48.743Z,1.33
2022-07-30T23:56:35.456Z,1.45
2022-07-30T23:59:22.003Z,1.50
